• Join FlightAware (Why Join?)
  • Login
  • US Flag 
12:23PM EDT


 

Airport Tracker/Info


-or-


 

Live Flight TrackerFlight Track Log ✈ N2BA ✈ 04-Aug-2013 ✈ KMSY - KPNS

Flight Track Log - Related Links

Times and Time Zones

All times are in EDT time to prevent confusion due to time zone crossing. See the N2BA flight status page for this flight to view local times or setup timezone preferences in your user account.

Time Position Orientation Groundspeed Altitude Reporting Facility
EDT Latitude Longitude Course Direction KTS MPH feet Rate Location/Type
03:47PM 27.9833 -82.5333 360° North 164 189 500  Level Tampa TRACON
03:48PM 28.0167 -82.5333 360° North 236 272 2,000 3,180 Climbing Tampa TRACON
03:49PM 28.0833 -82.5500 348° North 272 313 5,600 3,000 Climbing Tampa TRACON
03:50PM 28.0500 -82.6000 233° Southwest 281 323 8,000 2,760 Climbing Tampa TRACON
03:51PM 27.9667 -82.6167 190° South 307 353 11,400 2,220 Climbing Tampa TRACON
03:52PM 27.9167 -82.7167 241° Southwest 333 383 12,700 1,920 Climbing Tampa TRACON
03:53PM 27.8833 -82.8000 246° West 334 384 15,100 2,160 Climbing Tampa TRACON
03:54PM 27.8294 -82.9467 247° West 378 435 18,100 1,980 Climbing Miami Center
03:55PM 27.8539 -83.0606 284° West 351 404 20,300 2,040 Climbing Miami Center
03:56PM 27.8928 -83.1728 291° West 361 415 22,200 1,800 Climbing Miami Center
03:57PM 27.9336 -83.2878 292° West 378 435 24,000 1,500 Climbing Miami Center
03:58PM 27.9717 -83.4122 289° West 401 461 25,300 1,200 Climbing Miami Center
04:00PM 28.0558 -83.6686 290° West 417 480 27,800 1,140 Climbing Jacksonville Center
04:01PM 28.1008 -83.7961 292° West 428 493 28,900 1,200 Climbing Jacksonville Center
04:02PM 28.1417 -83.9306 289° West 440 506 30,300 1,500 Climbing Jacksonville Center
04:03PM 28.1864 -84.0675 290° West 429 494 31,900 1,440 Climbing Jacksonville Center
04:04PM 28.2247 -84.1928 289° West 429 494 33,200 1,020 Climbing Jacksonville Center
04:05PM 28.2672 -84.3208 291° West 429 494 34,000 420 Climbing Jacksonville Center
04:06PM 28.3072 -84.4556 289° West 435 501 34,100  Climbing Jacksonville Center
04:07PM 28.3556 -84.5956 291° West 461 531 34,100  Level Jacksonville Center
04:08PM 28.3997 -84.7356 290° West 466 536 34,100  Level Jacksonville Center
04:09PM 28.4456 -84.8781 290° West 472 543 34,100  Level Jacksonville Center
04:10PM 28.4892 -85.0206 289° West 472 543 34,100  Level Jacksonville Center
04:11PM 28.5328 -85.1608 290° West 472 543 34,100  Level Jacksonville Center
04:12PM 28.5739 -85.2967 289° West 472 543 34,100  Level Jacksonville Center
04:13PM 28.6133 -85.4228 290° West 465 535 34,100  Level Jacksonville Center
04:14PM 28.6544 -85.5611 289° West 465 535 34,100  Level Jacksonville Center
04:15PM 28.6994 -85.6972 291° West 465 535 34,100  Level Jacksonville Center
04:16PM 28.7381 -85.8381 287° West 465 535 34,100  Level Jacksonville Center
04:17PM 28.7828 -85.9814 290° West 470 541 34,100  Level Jacksonville Center
04:18PM 28.8231 -86.1200 288° West 464 534 34,100  Level Jacksonville Center
04:19PM 28.8675 -86.2589 290° West 470 541 34,100  Level Jacksonville Center
04:20PM 28.9097 -86.3981 289° West 470 541 34,100  Level Jacksonville Center
04:21PM 28.9517 -86.5394 289° West 470 541 34,100  Level Jacksonville Center
04:22PM 28.9872 -86.6808 286° West 465 535 34,100  Level Jacksonville Center
04:23PM 29.0331 -86.8203 291° West 465 535 34,100  Level Jacksonville Center
04:24PM 29.0561 -86.8936 290° West 468 539 34,100  Level Houston Center
04:25PM 29.0950 -87.0333 288° West 463 533 34,100  Level Houston Center
04:26PM 29.1378 -87.1736 289° West 467 537 34,100  Level Houston Center
04:27PM 29.1842 -87.3403 288° West 461 531 34,100  Level Houston Center
04:28PM 29.2269 -87.4794 289° West 463 533 34,100  Level Houston Center
04:29PM 29.2647 -87.6197 287° West 462 532 34,100  Level Houston Center
04:30PM 29.3058 -87.7592 289° West 461 531 34,100  Level Houston Center
04:31PM 29.3444 -87.8992 288° West 463 533 34,100  Level Houston Center
04:32PM 29.3858 -88.0436 288° West 462 532 34,100  Level Houston Center
04:33PM 29.4239 -88.1833 287° West 460 529 34,100  Level Houston Center
04:34PM 29.4653 -88.3219 289° West 459 528 34,100  Level Houston Center
04:35PM 29.5083 -88.4828 287° West 463 533 34,100  Level Houston Center
04:36PM 29.5483 -88.6225 288° West 462 532 34,100  Level Houston Center
04:37PM 29.5875 -88.7625 288° West 462 532 34,100 -900 Level Houston Center
04:38PM 29.6267 -88.9056 288° West 469 540 32,300 -2,640 Descending Houston Center
04:39PM 29.6736 -89.0853 287° West 487 560 28,700 -3,780 Descending Houston Center
04:41PM 29.7164 -89.2328 288° West 487 560 24,600 -4,320 Descending Houston Center
04:42PM 29.7611 -89.3906 288° West 478 550 20,000 -4,140 Descending Houston Center
04:42PM 29.7944 -89.5039 289° West 445 512 16,700 -3,480 Descending Houston Center
04:43PM 29.8428 -89.6289 294° West 379 436 13,400 -3,180 Descending Houston Center
04:45PM 29.8842 -89.7347 294° West 323 372 10,000 -2,280 Descending Houston Center
04:46PM 29.9058 -89.8225 286° West 269 310 8,600 -1,920 Descending Houston Center
04:46PM 29.9233 -89.9058 284° West 280 322 6,400 -2,040 Descending Houston Center
04:48PM 29.9342 -90.0167 276° West 284 327 4,200 -2,040 Descending Houston Center
04:49PM 29.9519 -90.0969 284° West 270 311 1,800 -1,560 Descending Houston Center
04:50PM 29.9647 -90.1558 284° West 205 236 1,400 -600 Descending Houston Center
04:51PM 29.9789 -90.2106 287° West 158 182 800 -420 Descending Houston Center
04:52PM 30.0022 -90.2622 298° West 188 216 500 60 Descending Houston Center
04:54PM 29.9937 -90.2039 100° East  Level FlightAware Approximate
05:01PM 30.0365 -89.9525 90° East  Level Estimated
05:02PM 30.0426 -89.9165 90° East  Level Estimated
05:03PM 30.0294 -89.8832 114° Southeast  Level FlightAware Approximate
05:04PM 30.0163 -89.8499 115° Southeast  Level FlightAware Approximate
05:05PM 30.0031 -89.8166 115° Southeast  Level FlightAware Approximate
05:06PM 30.0099 -89.7809 74° East  Level Estimated
05:07PM 30.0055 -89.7446 98° East  Level FlightAware Approximate
05:08PM 30.0124 -89.7089 60° Northeast  Level Estimated
05:09PM 30.0241 -89.6749 68° East  Level FlightAware Approximate
05:10PM 30.0359 -89.6409 68° East  Level FlightAware Approximate
05:11PM 30.0426 -89.6051 65° Northeast  Level Estimated
05:12PM 30.0575 -89.5728 62° Northeast  Level FlightAware Approximate
05:13PM 30.0724 -89.5405 62° Northeast  Level FlightAware Approximate
05:14PM 30.0788 -89.5046 41° Northeast  Level Estimated
05:15PM 30.0853 -89.4688 62° Northeast  Level Estimated
05:16PM 30.1049 -89.4400 52° Northeast  Level FlightAware Approximate
05:17PM 30.1245 -89.4112 52° Northeast  Level FlightAware Approximate
05:17PM 30.0119 -90.3342 291° West 214 246 3,600  Level Houston Center
05:18PM 30.1441 -89.3824 52° Northeast  Level FlightAware Approximate
05:18PM 30.0581 -90.3814 318° Northwest 217 250 7,900  Level Houston Center
05:19PM 30.1636 -89.3536 52° Northeast  Level FlightAware Approximate
05:19PM 30.0986 -90.3361 44° Northeast 260 299 10,800  Level Houston Center
05:20PM 30.1832 -89.3247 52° Northeast  Level FlightAware Approximate
05:20PM 30.1122 -90.2422 80° East 293 337 13,700  Level Houston Center
05:21PM 30.1884 -89.2886 57° Northeast  Level Estimated
05:21PM 30.1283 -90.1328 80° East 346 398 15,800  Level Houston Center
05:22PM 30.1447 -89.9931 82° East 368 423 18,800 2,220 Climbing Houston Center
05:23PM 30.1592 -89.8711 82° East 385 443 20,500 1,020 Climbing Houston Center
05:24PM 30.1753 -89.7406 82° East 411 473 21,000 240 Climbing Houston Center
05:25PM 30.1944 -89.6000 81° East 447 514 21,100  Climbing Houston Center
05:26PM 30.2203 -89.4253 80° East 464 534 21,100  Level Houston Center
05:27PM 30.2378 -89.2800 82° East 462 532 21,100  Level Houston Center
05:28PM 30.2514 -89.1344 84° East 459 528 21,100  Level Houston Center
05:29PM 30.2667 -88.9917 83° East 451 519 21,100  Level Houston Center
05:30PM 30.2875 -88.8344 81° East 453 521 21,100  Level Houston Center
05:31PM 30.3053 -88.6911 82° East 453 521 21,100  Level Houston Center
05:32PM 30.3225 -88.5483 82° East 453 521 21,100 -480 Level Houston Center
05:33PM 30.3389 -88.4042 82° East 455 524 20,100 -1,560 Descending Houston Center
05:34PM 30.3608 -88.2253 82° East 467 537 17,900 -1,800 Descending Houston Center
05:35PM 30.3792 -88.0817 82° East 458 527 16,500 -1,020 Descending Houston Center
05:36PM 30.3933 -87.9394 83° East 449 517 15,900 -720 Descending Houston Center
05:37PM 30.4075 -87.8031 83° East 435 501 15,100 -780 Descending Houston Center
05:38PM 30.4289 -87.6769 79° East 397 457 14,400 -2,280 Descending Houston Center
05:39PM 30.4681 -87.5469 71° East 360 414 10,400 -3,480 Descending Houston Center
05:41PM 30.4981 -87.4561 69° East 314 361 7,300 -2,760 Descending Houston Center
05:42PM 30.5200 -87.3581 75° East 314 361 4,700 -2,400 Descending Houston Center
05:43PM 30.5331 -87.2717 80° East 288 331 2,400 -1,620 Descending Houston Center
05:44PM 30.5381 -87.1831 86° East 270 311 1,400 -1,020 Descending Houston Center